logo
Search for airport 
image banner adimage banner adimage banner ad
image banner ad

EDAY - Strausberg

Located in Strausberg, Germany

ICAO - EDAY, IATA - QPK

Data provided by Airmate  

General information

Coordinates: N52°34'49" E13°54'54"
Elevation is 262 feet MSL.
Magnetic variation is 3.7000° East
View others Airports in Brandenburg

Operational data

Special qualification required
Current time UTC:
Current local time:
Weather at : EDDB - Berlin Brandenburg ( 37 km )
METAR: EDDB 301920Z AUTO 09004KT 060V130 9999 FEW011 16/15 Q1004 NOSIG
TAF: TAF EDDB 301700Z 3018/3118 09003KT 9999 FEW045 PROB30 TEMPO 3020/3024 SHRA BKN040CB BECMG 3023/3103 21005KT 4000 BR BKN008 PROB40 TEMPO 3102/3105 0700 FG BKN001 BECMG 3105/3107 9999 BKN015 BECMG 3113/3116 29005KT
View NOTAMs / SUP AIP / TFR affecting this airport [VIEW]
Communications frequencies: [VIEW]

Runways:

RWY identifierQFULength (ft)Width (ft)SurfaceLDA (ft)
0549°393792CONC3937
23229°393792CONC3937

Airport contact information

Address: Strausberg Germany

Satellite view of EDAY